Time;durP1;ratioP1;P1;durP2;ratioP2;P2;SDS_P1;SDS_P2;PMS_P1;PMS_P2;Temp;Humidity;BMP_temperature;BMP_pressure;BME280_temperature;BME280_humidity;BME280_pressure;Samples;Min_cycle;Max_cycle;Signal;HPM_P1;HPM_P2
2021/11/15 00:00:07;;;;;;;21.77;14.48;;;;;;;8.94;92.42;102613.03;5018924;28;20045;-52
2021/11/15 00:02:41;;;;;;;22.52;15.13;;;;;;;8.94;91.43;102611.13;5032084;28;20095;-49
2021/11/15 00:05:10;;;;;;;20.77;15.15;;;;;;;8.94;91.54;102602.97;5031982;28;20060;-51
2021/11/15 00:07:38;;;;;;;19.60;14.57;;;;;;;8.91;91.95;102605.31;5032210;28;20492;-52
2021/11/15 00:10:07;;;;;;;19.73;14.38;;;;;;;8.85;91.41;102592.56;5032524;28;20041;-52
2021/11/15 00:12:35;;;;;;;17.83;12.45;;;;;;;8.85;91.57;102595.28;5031677;28;20041;-52
2021/11/15 00:15:03;;;;;;;19.33;13.82;;;;;;;8.91;91.55;102591.72;5032814;28;20049;-53
2021/11/15 00:17:31;;;;;;;20.60;14.45;;;;;;;8.95;91.12;102593.78;5032006;28;20520;-52
2021/11/15 00:20:30;;;;;;;21.52;15.38;;;;;;;8.90;90.55;102590.88;4970981;28;20055;-53
2021/11/15 00:22:58;;;;;;;18.35;13.68;;;;;;;8.91;90.58;102602.59;4971128;28;20065;-52
2021/11/15 00:25:26;;;;;;;18.25;13.82;;;;;;;8.96;90.59;102595.44;4967187;28;20059;-54
2021/11/15 00:27:54;;;;;;;19.25;13.88;;;;;;;9.00;90.60;102595.88;4971416;28;20065;-52
2021/11/15 00:30:21;;;;;;;19.30;14.45;;;;;;;8.99;90.04;102594.19;4971685;28;20122;-50
2021/11/15 00:32:49;;;;;;;18.75;14.18;;;;;;;8.98;89.53;102594.41;4966053;28;20526;-50
2021/11/15 00:35:17;;;;;;;19.83;14.27;;;;;;;8.96;89.87;102595.44;4967376;28;20062;-52
2021/11/15 00:37:45;;;;;;;17.95;13.73;;;;;;;8.92;90.10;102583.34;4991955;28;20476;-49
2021/11/15 00:40:15;;;;;;;18.08;13.50;;;;;;;8.87;89.42;102594.00;5032208;28;20042;-52
2021/11/15 00:42:43;;;;;;;20.80;14.82;;;;;;;8.83;90.00;102594.66;5032024;28;20041;-53
2021/11/15 00:45:14;;;;;;;18.08;14.00;;;;;;;8.82;89.40;102590.25;5031804;28;20041;-51
2021/11/15 00:47:42;;;;;;;20.60;13.43;;;;;;;8.80;90.54;102590.47;5031607;28;20046;-52
2021/11/15 00:50:13;;;;;;;16.77;13.18;;;;;;;8.85;89.76;102598.84;5031850;28;20128;-51
2021/11/15 00:52:41;;;;;;;17.13;13.13;;;;;;;8.89;89.25;102594.63;5031757;28;20038;-52
2021/11/15 00:55:09;;;;;;;18.35;13.35;;;;;;;8.88;89.93;102584.00;5031762;28;20073;-52
2021/11/15 00:57:37;;;;;;;19.17;13.38;;;;;;;8.88;88.92;102592.97;5030515;28;20054;-53
2021/11/15 01:00:07;;;;;;;20.08;13.57;;;;;;;8.84;89.03;102597.16;5032154;28;20033;-50
2021/11/15 01:02:35;;;;;;;18.05;13.52;;;;;;;8.86;90.07;102599.69;5030222;28;20124;-52
2021/11/15 01:05:05;;;;;;;19.00;13.27;;;;;;;8.87;89.12;102596.72;5030930;28;20041;-52
2021/11/15 01:07:32;;;;;;;17.65;13.93;;;;;;;8.82;89.70;102598.41;5031792;28;20455;-52
2021/11/15 01:10:00;;;;;;;18.67;14.02;;;;;;;8.74;89.71;102602.19;5031595;28;20040;-51
2021/11/15 01:12:28;;;;;;;16.10;12.70;;;;;;;8.71;90.36;102599.91;5026544;28;20558;-54
2021/11/15 01:14:56;;;;;;;16.27;12.98;;;;;;;8.81;89.20;102599.47;5032727;28;20069;-52
2021/11/15 01:17:24;;;;;;;16.45;12.75;;;;;;;8.81;88.85;102596.75;5035501;28;20049;-52
2021/11/15 01:19:51;;;;;;;15.75;11.27;;;;;;;8.77;88.05;102612.66;5035688;28;20041;-49
2021/11/15 01:22:19;;;;;;;18.52;14.07;;;;;;;8.73;88.37;102609.53;5033809;28;20501;-49
2021/11/15 01:24:47;;;;;;;16.45;12.82;;;;;;;8.75;86.80;102603.84;5035168;28;20452;-48
2021/11/15 01:27:14;;;;;;;19.58;14.35;;;;;;;8.76;87.24;102611.00;5035372;28;20049;-52
2021/11/15 01:29:44;;;;;;;18.02;14.63;;;;;;;8.73;86.77;102611.38;5035094;28;20037;-52
2021/11/15 01:32:13;;;;;;;18.20;13.55;;;;;;;8.78;87.96;102614.34;5030591;28;20046;-52
2021/11/15 01:34:41;;;;;;;18.98;14.93;;;;;;;8.84;87.74;102613.47;5034714;28;20044;-48
2021/11/15 01:37:08;;;;;;;21.23;15.80;;;;;;;8.89;87.39;102602.78;5035635;28;20505;-52
2021/11/15 01:39:36;;;;;;;20.92;15.73;;;;;;;8.87;86.90;102615.75;5033999;28;20045;-52
2021/11/15 01:42:04;;;;;;;19.50;15.45;;;;;;;8.80;87.61;102616.81;5035074;28;20061;-51
2021/11/15 01:44:32;;;;;;;22.75;17.40;;;;;;;8.77;86.90;102614.53;5035048;28;20111;-52
2021/11/15 01:47:00;;;;;;;19.15;16.08;;;;;;;8.81;87.68;102607.63;5034827;28;20095;-54
2021/11/15 01:49:27;;;;;;;21.90;17.98;;;;;;;8.85;86.86;102614.28;5033796;28;20080;-53
2021/11/15 01:51:55;;;;;;;20.13;17.05;;;;;;;8.80;87.50;102606.78;5030131;28;20113;-52
2021/11/15 01:54:23;;;;;;;21.88;17.13;;;;;;;8.77;87.97;102612.66;5029926;28;20557;-52
2021/11/15 01:56:51;;;;;;;22.98;17.38;;;;;;;8.78;87.49;102611.63;5034746;28;20050;-52
2021/11/15 01:59:19;;;;;;;20.67;16.33;;;;;;;8.80;88.18;102604.06;5034661;28;20049;-52
2021/11/15 02:01:48;;;;;;;20.67;16.88;;;;;;;8.82;87.41;102596.53;5034508;28;20084;-54
2021/11/15 02:04:16;;;;;;;21.50;18.25;;;;;;;8.80;87.66;102589.63;5034515;28;20056;-55
2021/11/15 02:06:44;;;;;;;21.95;16.85;;;;;;;8.76;88.47;102589.25;5034290;28;20044;-52
2021/11/15 02:09:12;;;;;;;21.88;17.73;;;;;;;8.69;87.80;102577.56;5035191;28;20058;-52
2021/11/15 02:11:40;;;;;;;22.48;17.33;;;;;;;8.66;88.69;102580.66;5028140;28;20080;-51
2021/11/15 02:14:07;;;;;;;22.27;17.02;;;;;;;8.67;88.94;102585.06;5020558;28;20450;-52
2021/11/15 02:16:35;;;;;;;22.48;18.73;;;;;;;8.68;88.29;102578.56;5034207;28;20037;-51
2021/11/15 02:19:04;;;;;;;23.60;18.42;;;;;;;8.66;89.08;102584.25;5034542;28;20045;-52
2021/11/15 02:21:32;;;;;;;22.42;17.85;;;;;;;8.62;88.72;102565.84;5034530;28;20045;-53
2021/11/15 02:24:00;;;;;;;23.60;19.30;;;;;;;8.63;88.54;102576.50;5024281;28;20072;-51
2021/11/15 02:26:28;;;;;;;20.83;15.82;;;;;;;8.62;89.26;102568.56;5034112;28;20072;-51
2021/11/15 02:28:55;;;;;;;22.33;18.52;;;;;;;8.57;89.41;102576.53;5033829;28;20511;-52
2021/11/15 02:31:28;;;;;;;22.00;17.80;;;;;;;8.51;89.39;102573.63;5029201;28;20037;-53
2021/11/15 02:33:58;;;;;;;23.60;18.33;;;;;;;8.53;89.47;102563.34;5027748;28;20056;-50
2021/11/15 02:36:27;;;;;;;25.27;18.67;;;;;;;8.62;88.58;102560.44;5032727;28;20041;-50
2021/11/15 02:38:56;;;;;;;22.30;18.67;;;;;;;8.58;88.16;102559.16;5034025;28;20053;-49
2021/11/15 02:41:24;;;;;;;19.17;15.65;;;;;;;8.54;88.63;102556.06;5020623;28;20064;-51
2021/11/15 02:43:52;;;;;;;19.67;15.50;;;;;;;8.56;88.45;102561.25;5033953;28;20041;-51
2021/11/15 02:46:20;;;;;;;23.30;18.02;;;;;;;8.56;88.24;102567.53;5033269;28;20044;-48
2021/11/15 02:48:48;;;;;;;22.70;17.85;;;;;;;8.46;88.95;102564.41;5033975;28;20049;-48
2021/11/15 02:51:16;;;;;;;22.45;16.15;;;;;;;8.43;88.83;102562.94;5031514;28;20046;-48
2021/11/15 02:53:44;;;;;;;20.13;16.58;;;;;;;8.46;88.54;102561.69;5032129;28;20053;-48
2021/11/15 02:56:12;;;;;;;20.30;16.88;;;;;;;8.48;88.18;102559.59;5033986;28;20038;-48
2021/11/15 02:58:40;;;;;;;21.55;17.70;;;;;;;8.46;88.24;102565.25;5033195;28;20041;-48
2021/11/15 03:01:10;;;;;;;24.42;19.85;;;;;;;8.43;88.78;102562.94;5033514;28;20048;-51
2021/11/15 03:03:39;;;;;;;21.38;17.92;;;;;;;8.42;89.03;102558.56;5031788;28;20410;-48
2021/11/15 03:06:07;;;;;;;22.77;18.20;;;;;;;8.45;89.36;102563.59;5033572;28;20530;-48
2021/11/15 03:08:35;;;;;;;22.30;17.45;;;;;;;8.49;89.39;102564.84;5033390;28;20079;-49
2021/11/15 03:11:05;;;;;;;21.95;15.77;;;;;;;8.49;89.45;102553.97;5027183;28;20041;-50
2021/11/15 03:13:47;;;;;;;22.10;18.73;;;;;;;8.52;89.74;102558.16;5027500;28;20132;-49
2021/11/15 03:16:15;;;;;;;24.65;19.27;;;;;;;8.50;89.22;102566.50;5021744;28;20056;-52
2021/11/15 03:18:44;;;;;;;23.65;19.73;;;;;;;8.43;89.20;102564.84;5032895;28;20171;-48
2021/11/15 03:21:20;;;;;;;20.40;15.68;;;;;;;8.37;89.54;102561.06;5033663;28;20111;-49
2021/11/15 03:23:53;;;;;;;23.63;18.37;;;;;;;8.43;89.69;102564.84;5022471;28;20042;-51
2021/11/15 03:26:22;;;;;;;22.58;17.80;;;;;;;8.44;89.50;102570.06;5033395;28;20069;-49
2021/11/15 03:28:51;;;;;;;21.67;16.17;;;;;;;8.47;89.86;102558.78;5032808;28;20041;-48
2021/11/15 03:31:22;;;;;;;21.92;17.90;;;;;;;8.55;89.21;102559.59;5030669;28;20049;-51
2021/11/15 03:33:53;;;;;;;21.30;17.92;;;;;;;8.59;88.61;102560.84;5032781;28;20397;-49
2021/11/15 03:36:22;;;;;;;19.85;16.75;;;;;;;8.57;88.49;102563.78;5032686;28;20056;-48
2021/11/15 03:38:51;;;;;;;20.65;16.98;;;;;;;8.57;88.12;102557.50;5033155;28;20496;-48
2021/11/15 03:41:20;;;;;;;25.08;20.13;;;;;;;8.51;87.89;102562.75;5032280;28;20038;-50
2021/11/15 03:43:48;;;;;;;23.00;17.85;;;;;;;8.44;88.22;102559.22;5032708;28;20503;-50
2021/11/15 03:46:17;;;;;;;22.38;17.38;;;;;;;8.41;89.13;102564.22;5032710;28;20396;-51
2021/11/15 03:48:46;;;;;;;23.67;19.10;;;;;;;8.40;88.62;102560.66;5033122;28;20056;-52
2021/11/15 03:51:14;;;;;;;22.00;18.55;;;;;;;8.34;89.11;102564.19;5021825;28;20049;-51
2021/11/15 03:53:42;;;;;;;20.70;17.50;;;;;;;8.33;88.94;102559.81;5032811;28;20045;-52
2021/11/15 03:56:13;;;;;;;20.25;16.13;;;;;;;8.34;90.28;102561.47;5032486;28;20053;-51
2021/11/15 03:58:43;;;;;;;21.83;18.30;;;;;;;8.39;89.05;102561.66;5031971;28;20060;-49
2021/11/15 04:01:11;;;;;;;24.40;18.92;;;;;;;8.36;88.50;102562.09;5032506;28;20033;-48
2021/11/15 04:03:42;;;;;;;22.60;17.77;;;;;;;8.32;89.25;102572.56;5032208;28;20149;-52
2021/11/15 04:06:25;;;;;;;23.05;18.73;;;;;;;8.25;89.24;102574.44;5031364;28;20515;-52
2021/11/15 04:08:54;;;;;;;22.55;17.20;;;;;;;8.27;89.34;102569.63;5032137;28;20038;-49
2021/11/15 04:11:24;;;;;;;22.25;17.35;;;;;;;8.30;88.59;102569.22;5031751;28;20057;-52
2021/11/15 04:13:54;;;;;;;20.17;16.48;;;;;;;8.29;89.01;102575.66;5032469;28;20064;-52
2021/11/15 04:16:22;;;;;;;20.77;16.95;;;;;;;8.28;88.82;102579.44;5032064;28;20119;-52
2021/11/15 04:18:53;;;;;;;21.25;18.15;;;;;;;8.22;88.88;102582.97;5032357;28;20037;-53
2021/11/15 04:21:21;;;;;;;20.25;16.95;;;;;;;8.23;89.24;102586.56;5032181;28;20515;-52
2021/11/15 04:23:49;;;;;;;22.23;18.25;;;;;;;8.19;88.92;102579.84;5023930;28;21425;-50
2021/11/15 04:26:16;;;;;;;23.60;18.98;;;;;;;8.24;89.04;102580.91;5032192;28;20042;-52
2021/11/15 04:28:44;;;;;;;21.88;18.48;;;;;;;8.24;89.51;102574.63;5032280;28;20053;-52
2021/11/15 04:31:12;;;;;;;23.55;19.25;;;;;;;8.15;89.39;102578.59;5031996;28;20428;-53
2021/11/15 04:33:40;;;;;;;22.30;17.48;;;;;;;8.10;90.05;102580.06;5032016;28;20473;-52
2021/11/15 04:36:07;;;;;;;19.40;15.65;;;;;;;8.13;90.37;102575.25;5018541;28;20404;-51
2021/11/15 04:38:35;;;;;;;21.88;17.83;;;;;;;8.19;90.43;102580.69;5032053;28;20501;-52
2021/11/15 04:41:03;;;;;;;23.55;19.33;;;;;;;8.24;89.98;102585.50;5031602;28;20480;-52
2021/11/15 04:43:30;;;;;;;22.10;17.83;;;;;;;8.23;90.28;102578.41;5032162;28;20088;-51
2021/11/15 04:45:58;;;;;;;20.13;17.23;;;;;;;8.21;89.51;102585.91;5032212;28;20108;-48
2021/11/15 04:48:26;;;;;;;23.67;18.75;;;;;;;8.20;89.89;102584.22;5034038;28;20594;-52
2021/11/15 04:50:54;;;;;;;22.80;17.70;;;;;;;8.20;89.95;102584.22;5035738;28;20041;-53
2021/11/15 04:53:22;;;;;;;21.27;18.33;;;;;;;8.23;89.71;102581.13;5034595;28;20045;-52
2021/11/15 04:55:51;;;;;;;21.63;17.52;;;;;;;8.27;89.55;102585.94;5035858;28;20041;-50
2021/11/15 04:58:18;;;;;;;21.15;17.95;;;;;;;8.23;89.21;102584.66;5035757;28;20579;-51
2021/11/15 05:00:46;;;;;;;19.67;16.55;;;;;;;8.22;89.95;102587.59;5035914;28;20526;-50
2021/11/15 05:03:16;;;;;;;21.63;16.50;;;;;;;8.23;89.45;102578.41;5035549;28;20112;-53
2021/11/15 05:05:45;;;;;;;18.98;15.88;;;;;;;8.23;88.56;102579.22;5035739;28;20053;-50
2021/11/15 05:08:12;;;;;;;21.02;16.92;;;;;;;8.20;89.17;102578.81;5035719;28;20053;-48
2021/11/15 05:10:40;;;;;;;19.15;16.77;;;;;;;8.19;89.01;102577.16;5035543;28;20033;-48
2021/11/15 05:13:08;;;;;;;21.02;16.92;;;;;;;8.21;89.24;102583.22;5034904;28;20045;-48
2021/11/15 05:15:35;;;;;;;20.08;16.38;;;;;;;8.14;88.89;102583.19;5035917;28;20508;-49
2021/11/15 05:18:03;;;;;;;16.92;13.02;;;;;;;8.16;89.86;102580.28;5035917;28;20100;-49
2021/11/15 05:20:31;;;;;;;16.83;13.23;;;;;;;8.06;90.28;102576.09;5034252;28;20045;-50
2021/11/15 05:22:59;;;;;;;19.42;14.90;;;;;;;8.08;89.21;102575.88;5035374;28;20064;-53
2021/11/15 05:25:27;;;;;;;20.42;16.45;;;;;;;7.99;89.58;102575.25;5035168;28;20048;-52
2021/11/15 05:27:55;;;;;;;20.33;16.67;;;;;;;7.97;89.17;102577.34;5035782;28;20528;-51
2021/11/15 05:30:23;;;;;;;19.00;15.32;;;;;;;7.92;90.29;102573.59;5035211;28;20049;-49
2021/11/15 05:32:51;;;;;;;20.20;16.05;;;;;;;7.98;89.99;102581.72;5035544;28;20063;-49
2021/11/15 05:35:19;;;;;;;22.10;18.02;;;;;;;7.96;89.62;102575.69;5035191;28;20103;-49
2021/11/15 05:37:49;;;;;;;24.42;18.48;;;;;;;7.96;89.34;102581.09;5025674;28;20072;-56
2021/11/15 05:40:17;;;;;;;22.25;17.85;;;;;;;7.92;90.04;102581.72;5033311;28;20045;-55
2021/11/15 05:42:49;;;;;;;23.45;18.80;;;;;;;7.79;90.13;102574.38;5035129;28;20885;-56
2021/11/15 05:45:17;;;;;;;23.55;17.95;;;;;;;7.83;90.03;102579.19;5035211;28;20411;-53
2021/11/15 05:47:45;;;;;;;24.20;18.85;;;;;;;7.86;90.54;102581.53;5035274;28;20075;-53
2021/11/15 05:50:13;;;;;;;25.27;18.52;;;;;;;7.78;90.74;102578.97;5034299;28;20038;-52
2021/11/15 05:52:42;;;;;;;24.50;19.85;;;;;;;7.78;89.94;102578.16;5034997;28;20053;-54
2021/11/15 05:55:16;;;;;;;24.08;19.70;;;;;;;7.77;90.81;102577.31;5034985;28;20042;-51
2021/11/15 05:57:45;;;;;;;25.65;19.20;;;;;;;7.76;90.95;102577.50;5034232;28;20107;-52
2021/11/15 06:00:21;;;;;;;23.88;19.45;;;;;;;7.82;90.49;102576.72;5033261;28;20140;-50
2021/11/15 06:02:49;;;;;;;24.30;18.52;;;;;;;7.81;90.64;102578.56;5034153;28;20053;-53
2021/11/15 06:05:17;;;;;;;22.92;19.33;;;;;;;7.82;90.98;102580.25;5034474;28;20041;-53
2021/11/15 06:07:45;;;;;;;23.60;18.77;;;;;;;7.72;91.14;102578.97;5034494;28;20420;-53
2021/11/15 06:10:13;;;;;;;25.25;20.05;;;;;;;7.74;91.28;102585.84;5034546;28;20037;-53
2021/11/15 06:12:41;;;;;;;23.95;18.13;;;;;;;7.72;91.10;102570.81;5034549;28;20389;-52
2021/11/15 06:15:10;;;;;;;25.73;19.70;;;;;;;7.69;90.83;102575.63;5034364;28;20071;-52
2021/11/15 06:17:38;;;;;;;24.60;19.50;;;;;;;7.76;90.86;102574.81;5032007;28;20448;-53
2021/11/15 06:20:08;;;;;;;24.67;18.25;;;;;;;7.74;90.64;102579.59;5034304;28;20148;-52
2021/11/15 06:22:36;;;;;;;27.08;20.35;;;;;;;7.71;90.70;102578.13;5033977;28;20488;-55
2021/11/15 06:25:08;;;;;;;25.92;19.55;;;;;;;7.71;90.73;102588.16;5034407;28;20049;-52
2021/11/15 06:27:36;;;;;;;23.52;18.45;;;;;;;7.72;90.94;102576.25;5034333;28;20500;-52
2021/11/15 06:30:07;;;;;;;24.13;18.73;;;;;;;7.69;91.14;102582.91;5034192;28;20396;-54
2021/11/15 06:32:34;;;;;;;25.80;20.38;;;;;;;7.60;91.23;102585.00;5034078;28;20033;-52
2021/11/15 06:35:03;;;;;;;26.58;21.05;;;;;;;7.49;91.12;102587.47;5033515;28;20500;-52
2021/11/15 06:37:32;;;;;;;26.05;20.45;;;;;;;7.53;91.79;102595.00;5033681;28;20125;-52
2021/11/15 06:39:59;;;;;;;24.58;19.73;;;;;;;7.52;91.36;102596.03;5034078;28;20037;-51
2021/11/15 06:42:27;;;;;;;28.27;21.55;;;;;;;7.52;92.13;102601.44;5025939;28;20121;-52
2021/11/15 06:44:55;;;;;;;27.15;21.20;;;;;;;7.54;92.12;102599.38;5033158;28;20040;-50
2021/11/15 06:47:23;;;;;;;28.85;21.80;;;;;;;7.66;91.89;102605.88;5033255;28;20055;-53
2021/11/15 06:49:52;;;;;;;26.50;20.98;;;;;;;7.76;92.07;102589.19;5033399;28;20147;-49
2021/11/15 06:52:20;;;;;;;27.65;20.98;;;;;;;7.75;90.65;102597.56;5033493;28;20080;-53
2021/11/15 06:54:49;;;;;;;26.95;21.15;;;;;;;7.79;91.59;102596.94;4359596;28;10002729;-59
2021/11/15 06:57:17;;;;;;;28.10;20.92;;;;;;;7.80;91.15;102601.31;5023483;28;20258;-50
2021/11/15 06:59:45;;;;;;;31.33;22.13;;;;;;;7.78;90.75;102603.41;5031290;28;20049;-55
2021/11/15 07:02:13;;;;;;;27.58;21.67;;;;;;;7.86;90.91;102605.94;5030733;28;21611;-55
2021/11/15 07:04:41;;;;;;;26.77;21.17;;;;;;;7.86;90.44;102610.50;5030513;28;20129;-52
2021/11/15 07:07:09;;;;;;;26.58;21.27;;;;;;;7.87;90.92;102612.19;5030379;28;20471;-48
2021/11/15 07:09:37;;;;;;;28.48;21.23;;;;;;;7.92;91.03;102606.97;5023701;28;20088;-48
2021/11/15 07:12:04;;;;;;;28.08;21.60;;;;;;;7.88;90.80;102619.28;5029791;28;20038;-46
2021/11/15 07:14:32;;;;;;;27.65;21.15;;;;;;;7.81;91.18;102621.16;5030324;28;20072;-45
2021/11/15 07:16:59;;;;;;;29.10;21.55;;;;;;;7.73;91.79;102618.63;5031012;28;20496;-48
2021/11/15 07:19:28;;;;;;;26.63;20.90;;;;;;;7.64;91.74;102613.38;5030855;28;20041;-51
2021/11/15 07:21:55;;;;;;;27.27;20.98;;;;;;;7.54;92.62;102618.34;5029820;28;20041;-46
2021/11/15 07:24:23;;;;;;;28.15;20.92;;;;;;;7.49;93.28;102620.03;5029956;28;20053;-48
2021/11/15 07:26:51;;;;;;;26.80;19.60;;;;;;;7.51;93.35;102616.06;5030966;28;20488;-48
2021/11/15 07:29:18;;;;;;;26.75;21.50;;;;;;;7.53;92.52;102622.13;5030923;28;20049;-49
2021/11/15 07:31:47;;;;;;;28.27;21.50;;;;;;;7.52;92.78;102620.44;5029883;28;20080;-47
2021/11/15 07:34:15;;;;;;;28.65;22.00;;;;;;;7.50;92.66;102617.09;5027989;28;20041;-47
2021/11/15 07:36:42;;;;;;;28.58;20.88;;;;;;;7.43;91.98;102624.34;5021668;28;20717;-48
2021/11/15 07:39:10;;;;;;;29.35;22.38;;;;;;;7.45;91.97;102620.41;5025309;28;20130;-48
2021/11/15 07:41:43;;;;;;;25.15;19.98;;;;;;;7.48;92.88;102616.47;5027346;28;20046;-49
2021/11/15 07:44:11;;;;;;;26.67;19.73;;;;;;;7.59;92.50;102613.16;5030054;28;20576;-48
2021/11/15 07:46:39;;;;;;;25.27;20.58;;;;;;;7.64;92.00;102613.38;5024001;28;20042;-46
2021/11/15 07:49:06;;;;;;;29.95;21.95;;;;;;;7.64;91.70;102618.81;5030164;28;20045;-48
2021/11/15 07:51:35;;;;;;;29.00;22.52;;;;;;;7.44;91.88;102617.91;5030198;28;20045;-48
2021/11/15 07:54:02;;;;;;;29.17;21.75;;;;;;;7.36;93.34;102616.22;5026037;28;20419;-48
2021/11/15 07:56:30;;;;;;;30.85;22.77;;;;;;;7.34;93.50;102612.03;5028001;28;20495;-47
2021/11/15 07:58:58;;;;;;;26.13;19.95;;;;;;;7.41;92.57;102608.31;5027892;28;20193;-46
2021/11/15 08:01:26;;;;;;;26.48;19.60;;;;;;;7.54;92.56;102618.34;5029816;28;20060;-45
2021/11/15 08:03:54;;;;;;;27.70;21.35;;;;;;;7.52;92.51;102620.44;5029968;28;20083;-47
2021/11/15 08:06:22;;;;;;;27.48;20.38;;;;;;;7.59;91.79;102626.72;5029872;28;20500;-48
2021/11/15 08:08:49;;;;;;;25.73;20.60;;;;;;;7.63;92.12;102628.00;5029976;28;20045;-44
2021/11/15 08:11:18;;;;;;;26.17;21.17;;;;;;;7.53;91.45;102632.97;5028415;28;20048;-47
2021/11/15 08:13:46;;;;;;;25.70;20.55;;;;;;;7.51;91.81;102635.03;5029894;28;20054;-46
2021/11/15 08:16:13;;;;;;;25.27;19.92;;;;;;;7.59;93.19;102626.72;5029916;28;20043;-46
2021/11/15 08:18:41;;;;;;;25.63;14.90;;;;;;;7.63;93.89;102627.16;5024932;28;20096;-49
2021/11/15 08:21:12;;;;;;;26.17;19.45;;;;;;;7.66;91.75;102616.72;5020890;28;20065;-47
2021/11/15 08:23:42;;;;;;;24.70;18.42;;;;;;;7.58;92.38;102611.50;5028782;28;20049;-47
2021/11/15 08:26:44;;;;;;;27.67;21.45;;;;;;;7.56;92.05;102600.00;5022232;28;20041;-48
2021/11/15 08:29:20;;;;;;;29.65;21.83;;;;;;;7.57;92.45;102609.81;5011865;28;20111;-50
2021/11/15 08:31:48;;;;;;;27.38;20.15;;;;;;;7.61;92.50;102608.38;5020658;28;20053;-47
2021/11/15 08:34:18;;;;;;;28.00;20.30;;;;;;;7.54;92.08;102607.50;5030558;28;20056;-46
2021/11/15 08:36:47;;;;;;;29.67;20.73;;;;;;;7.41;93.17;102608.31;5030891;28;20400;-46
2021/11/15 08:39:17;;;;;;;28.50;21.42;;;;;;;7.36;94.22;102599.09;5032056;28;20045;-44
2021/11/15 08:41:48;;;;;;;26.92;20.70;;;;;;;7.35;94.78;102597.44;5032006;28;20104;-45
2021/11/15 08:44:18;;;;;;;29.05;20.95;;;;;;;7.33;94.06;102608.47;5031433;28;20064;-47
2021/11/15 08:46:47;;;;;;;28.15;20.15;;;;;;;7.21;94.96;102602.78;5031622;28;20041;-46
2021/11/15 08:49:17;;;;;;;30.40;22.15;;;;;;;7.35;94.93;102602.84;5031858;28;20052;-43
2021/11/15 08:51:45;;;;;;;28.77;21.27;;;;;;;7.44;94.15;102602.47;5031830;28;20057;-48
2021/11/15 08:54:15;;;;;;;24.58;18.80;;;;;;;7.50;93.29;102605.41;5031700;28;20049;-46
2021/11/15 08:56:51;;;;;;;30.75;19.58;;;;;;;7.60;93.13;102604.00;5031525;28;20049;-46
2021/11/15 08:59:39;;;;;;;27.05;18.40;;;;;;;7.67;92.71;102613.00;5031363;28;20037;-46
2021/11/15 09:02:07;;;;;;;27.58;19.05;;;;;;;7.68;92.56;102614.66;5031490;28;20048;-48
2021/11/15 09:04:37;;;;;;;27.17;19.55;;;;;;;7.59;92.84;102613.16;5031245;28;20045;-43
2021/11/15 09:07:05;;;;;;;27.15;20.15;;;;;;;7.55;93.32;102609.19;5031703;28;20121;-43
2021/11/15 09:09:32;;;;;;;29.08;20.75;;;;;;;7.50;93.36;102616.25;5031710;28;20063;-47
2021/11/15 09:12:02;;;;;;;27.75;19.25;;;;;;;7.56;94.28;102621.72;5031556;28;20396;-46
2021/11/15 09:14:30;;;;;;;27.15;19.33;;;;;;;7.50;93.07;102622.50;5031041;28;20041;-47
2021/11/15 09:16:58;;;;;;;27.38;18.52;;;;;;;7.40;94.56;102628.31;5031139;28;20046;-44
2021/11/15 09:19:25;;;;;;;27.05;20.25;;;;;;;7.41;94.91;102627.28;5031502;28;20528;-47
2021/11/15 09:21:56;;;;;;;25.45;19.30;;;;;;;7.49;95.58;102631.69;5031292;28;20048;-48
2021/11/15 09:24:24;;;;;;;29.65;20.35;;;;;;;7.45;94.63;102614.16;5031385;28;20500;-47
2021/11/15 09:26:53;;;;;;;27.33;20.15;;;;;;;7.39;94.63;102609.56;5031301;28;20041;-46
2021/11/15 09:29:22;;;;;;;29.67;20.77;;;;;;;7.44;95.42;102601.66;5018064;28;20051;-48
2021/11/15 09:31:50;;;;;;;26.75;20.13;;;;;;;7.45;95.33;102608.72;5031043;28;20044;-46
2021/11/15 09:34:18;;;;;;;27.83;19.65;;;;;;;7.45;95.16;102614.16;5032590;28;20045;-46
2021/11/15 09:36:45;;;;;;;25.00;18.15;;;;;;;7.49;95.61;102615.44;5034834;28;20496;-46
2021/11/15 09:39:14;;;;;;;25.85;18.17;;;;;;;7.55;95.61;102616.47;5035188;28;20045;-45
2021/11/15 09:41:45;;;;;;;27.00;19.90;;;;;;;7.56;94.92;102620.88;5035031;28;20393;-43
2021/11/15 09:44:13;;;;;;;26.45;19.08;;;;;;;7.54;95.00;102618.34;5034859;28;20050;-46
2021/11/15 09:46:43;;;;;;;25.00;18.05;;;;;;;7.54;95.56;102612.94;5034210;28;20048;-47
2021/11/15 09:49:11;;;;;;;29.13;18.85;;;;;;;7.56;95.65;102619.00;5034913;28;20052;-47
2021/11/15 09:51:44;;;;;;;29.55;20.77;;;;;;;7.53;94.80;102611.28;5034928;28;20427;-45
2021/11/15 09:54:12;;;;;;;25.30;19.45;;;;;;;7.45;95.60;102614.16;5034550;28;20037;-47
2021/11/15 09:56:41;;;;;;;27.63;18.92;;;;;;;7.48;96.21;102613.75;5034657;28;20047;-47
2021/11/15 09:59:11;;;;;;;27.10;19.08;;;;;;;7.56;95.62;102616.28;5034825;28;20064;-46
2021/11/15 10:01:44;;;;;;;27.65;19.83;;;;;;;7.60;95.52;102622.97;5034363;28;20060;-45
2021/11/15 10:04:14;;;;;;;26.35;19.58;;;;;;;7.69;95.76;102615.47;5034546;28;20175;-47
2021/11/15 10:06:43;;;;;;;30.40;20.55;;;;;;;7.74;94.68;102614.88;5034336;28;20415;-47
2021/11/15 10:09:11;;;;;;;28.17;20.83;;;;;;;7.72;95.07;102614.22;5034406;28;20045;-45
2021/11/15 10:11:53;;;;;;;29.58;20.98;;;;;;;7.72;95.48;102616.94;5016713;28;20049;-48
2021/11/15 10:14:21;;;;;;;27.63;20.63;;;;;;;7.76;94.86;102612.78;5034422;28;20049;-47
2021/11/15 10:16:54;;;;;;;28.90;20.83;;;;;;;7.77;94.87;102611.72;5034159;28;20103;-46
2021/11/15 10:19:22;;;;;;;27.38;19.35;;;;;;;7.75;94.65;102613.84;5034698;28;20055;-47
2021/11/15 10:21:54;;;;;;;29.83;21.20;;;;;;;7.69;94.80;102608.16;5034221;28;20045;-47
2021/11/15 10:24:23;;;;;;;27.45;18.45;;;;;;;7.68;94.82;102601.09;5034537;28;20048;-45
2021/11/15 10:26:54;;;;;;;26.63;19.30;;;;;;;7.70;94.81;102595.47;5033899;28;20057;-48
2021/11/15 10:29:40;;;;;;;28.23;20.48;;;;;;;7.64;94.18;102597.09;5020915;28;20442;-48
2021/11/15 10:32:19;;;;;;;30.33;21.95;;;;;;;7.45;95.68;102595.16;5034045;28;20377;-47
2021/11/15 10:34:54;;;;;;;26.30;15.35;;;;;;;7.54;99.50;102593.94;5034003;28;20507;-47
2021/11/15 10:37:29;;;;;;;27.80;18.52;;;;;;;7.67;97.09;102598.56;5033709;28;20038;-45
2021/11/15 10:40:11;;;;;;;25.55;18.17;;;;;;;7.69;95.86;102599.19;5034246;28;20045;-48
2021/11/15 10:42:48;;;;;;;24.85;17.35;;;;;;;7.77;96.50;102590.03;5033607;28;20519;-49
2021/11/15 10:45:21;;;;;;;25.63;18.92;;;;;;;7.72;95.70;102595.25;5032926;28;20049;-46
2021/11/15 10:47:55;;;;;;;26.15;17.65;;;;;;;7.67;96.31;102591.28;5033504;28;20128;-48
2021/11/15 10:50:34;;;;;;;27.88;18.58;;;;;;;7.57;96.15;102588.09;5033897;28;20041;-47
2021/11/15 10:53:16;;;;;;;27.02;16.55;;;;;;;7.58;95.99;102580.81;5033915;28;20053;-47
2021/11/15 10:56:02;;;;;;;26.60;17.67;;;;;;;7.60;96.26;102579.59;5034104;28;20041;-47
2021/11/15 10:58:38;;;;;;;24.90;18.08;;;;;;;7.54;96.36;102574.13;5033333;28;20055;-48
2021/11/15 11:01:06;;;;;;;25.85;16.63;;;;;;;7.58;96.85;102576.22;5034137;28;20049;-46
2021/11/15 11:03:35;;;;;;;27.08;18.25;;;;;;;7.57;95.89;102590.00;5035094;28;20493;-43
2021/11/15 11:06:11;;;;;;;24.67;17.55;;;;;;;7.54;96.87;102596.66;5033235;28;20053;-47
2021/11/15 11:08:41;;;;;;;26.52;18.25;;;;;;;7.52;96.63;102593.31;5033440;28;20048;-52
2021/11/15 11:11:12;;;;;;;25.48;17.85;;;;;;;7.44;96.56;102586.19;5033581;28;20510;-50
2021/11/15 11:13:44;;;;;;;28.73;18.20;;;;;;;7.34;97.69;102591.19;5033421;28;20041;-51
2021/11/15 11:16:16;;;;;;;29.15;18.52;;;;;;;7.27;98.88;102601.16;5033297;28;20415;-47
2021/11/15 11:18:48;;;;;;;30.67;19.17;;;;;;;7.25;98.78;102585.09;5030519;28;20148;-46
2021/11/15 11:26:28;;;;;;;28.95;18.55;;;;;;;7.32;97.71;102582.41;5028974;28;20052;-45
2021/11/15 11:29:22;;;;;;;28.67;18.42;;;;;;;7.40;97.45;102579.50;5032910;28;20049;-45
2021/11/15 11:31:53;;;;;;;28.05;19.13;;;;;;;7.42;97.45;102569.28;5033090;28;20041;-47